Time;durP1;ratioP1;P1;durP2;ratioP2;P2;SDS_P1;SDS_P2;PMS_P1;PMS_P2;Temp;Humidity;BMP_temperature;BMP_pressure;BME280_temperature;BME280_humidity;BME280_pressure;Samples;Min_cycle;Max_cycle;Signal;HPM_P1;HPM_P2
2021/10/08 00:01:23;;;;;;;5.50;5.00;;;13.20;99.90;;;;;;5022032;28;20212;-69
2021/10/08 00:03:51;;;;;;;5.77;5.07;;;13.20;99.90;;;;;;5022350;28;20188;-69
2021/10/08 00:06:17;;;;;;;10.10;4.90;;;13.10;99.90;;;;;;5021982;28;20761;-70
2021/10/08 00:08:43;;;;;;;6.23;5.30;;;13.10;99.90;;;;;;5023017;28;20439;-69
2021/10/08 00:11:10;;;;;;;7.03;5.43;;;13.10;99.90;;;;;;5022126;28;20427;-70
2021/10/08 00:13:37;;;;;;;5.63;5.03;;;13.00;99.90;;;;;;5023981;28;20208;-67
2021/10/08 00:16:05;;;;;;;5.53;5.03;;;13.10;99.90;;;;;;5027219;28;20844;-67
2021/10/08 00:18:32;;;;;;;5.43;4.93;;;13.00;99.90;;;;;;5023240;28;20453;-69
2021/10/08 00:20:58;;;;;;;6.23;5.33;;;13.00;99.90;;;;;;5020988;28;20428;-69
2021/10/08 00:23:24;;;;;;;5.77;5.10;;;12.90;99.90;;;;;;5022417;28;20538;-69
2021/10/08 00:25:49;;;;;;;5.97;4.80;;;12.90;99.90;;;;;;5017181;28;20754;-69
2021/10/08 00:28:15;;;;;;;4.90;4.50;;;12.90;99.90;;;;;;5007425;28;20242;-69
2021/10/08 00:30:41;;;;;;;5.33;4.83;;;12.90;99.90;;;;;;5021635;28;20276;-68
2021/10/08 00:33:06;;;;;;;5.00;4.60;;;12.90;99.90;;;;;;5023103;28;20738;-68
2021/10/08 00:35:32;;;;;;;7.87;4.73;;;13.00;99.90;;;;;;5024527;28;20251;-67
2021/10/08 00:37:57;;;;;;;10.10;4.60;;;12.90;99.90;;;;;;5021981;28;20648;-68
2021/10/08 00:40:23;;;;;;;6.83;4.83;;;12.80;99.90;;;;;;5022190;28;20196;-68
2021/10/08 00:42:50;;;;;;;5.10;4.60;;;12.80;99.90;;;;;;5022228;28;20179;-68
2021/10/08 00:45:16;;;;;;;5.83;5.27;;;12.80;99.90;;;;;;5017714;28;20201;-68
2021/10/08 00:47:42;;;;;;;6.63;4.77;;;12.70;99.90;;;;;;5021081;28;20481;-69
2021/10/08 00:50:09;;;;;;;5.17;4.67;;;12.70;99.90;;;;;;5023584;28;20423;-69
2021/10/08 00:52:35;;;;;;;5.77;4.77;;;12.70;99.90;;;;;;5025506;28;20193;-69
2021/10/08 00:55:01;;;;;;;7.03;4.73;;;12.70;99.90;;;;;;5026251;28;20946;-69
2021/10/08 00:57:26;;;;;;;5.47;4.73;;;12.70;99.90;;;;;;5028130;28;20659;-68
2021/10/08 00:59:53;;;;;;;5.43;4.93;;;12.70;99.90;;;;;;5024731;28;20709;-69
2021/10/08 01:02:20;;;;;;;5.30;4.80;;;12.60;99.90;;;;;;5026674;28;20565;-69
2021/10/08 01:04:55;;;;;;;4.90;4.40;;;12.60;99.90;;;;;;5029242;28;20446;-69
2021/10/08 01:07:22;;;;;;;6.33;5.70;;;12.60;99.90;;;;;;5025441;28;20858;-69
2021/10/08 01:09:47;;;;;;;4.60;4.03;;;12.70;99.90;;;;;;5026475;28;20451;-69
2021/10/08 01:12:13;;;;;;;5.80;5.30;;;12.70;99.90;;;;;;5027033;28;20783;-69
2021/10/08 01:14:38;;;;;;;5.83;4.90;;;12.70;99.90;;;;;;5022928;28;20322;-69
2021/10/08 01:17:15;;;;;;;8.07;4.80;;;12.60;99.90;;;;;;5025472;28;20258;-69
2021/10/08 01:19:41;;;;;;;8.20;5.33;;;12.70;99.90;;;;;;5028175;28;20223;-69
2021/10/08 01:22:07;;;;;;;5.07;4.57;;;12.60;99.90;;;;;;5022701;28;20471;-69
2021/10/08 01:24:33;;;;;;;4.70;4.10;;;12.60;99.90;;;;;;5024469;28;20438;-69
2021/10/08 01:27:05;;;;;;;4.93;4.53;;;12.60;99.90;;;;;;5025417;28;21734;-69
2021/10/08 01:29:32;;;;;;;6.20;4.73;;;12.50;99.90;;;;;;5025599;28;20637;-69
2021/10/08 01:31:58;;;;;;;5.30;4.27;;;12.50;99.90;;;;;;5025754;28;20522;-69
2021/10/08 01:34:24;;;;;;;6.13;4.50;;;12.40;99.90;;;;;;5028377;28;20517;-69
2021/10/08 01:36:49;;;;;;;6.10;4.80;;;12.40;99.90;;;;;;5024562;28;20934;-69
2021/10/08 01:39:15;;;;;;;4.70;4.30;;;12.40;99.90;;;;;;5026110;28;20220;-69
2021/10/08 01:41:41;;;;;;;5.23;4.30;;;12.50;99.90;;;;;;5025813;28;20283;-69
2021/10/08 01:44:07;;;;;;;5.77;4.77;;;12.50;99.90;;;;;;5024593;28;20204;-68
2021/10/08 01:46:32;;;;;;;5.03;4.27;;;12.50;99.90;;;;;;5029984;28;20303;-70
2021/10/08 01:48:58;;;;;;;5.63;5.13;;;12.50;99.90;;;;;;5022306;28;20284;-67
2021/10/08 01:51:23;;;;;;;4.70;4.27;;;12.50;99.90;;;;;;5026290;28;20234;-69
2021/10/08 01:53:49;;;;;;;5.00;4.50;;;12.50;99.90;;;;;;5023185;28;20574;-69
2021/10/08 01:56:15;;;;;;;5.00;4.50;;;12.30;99.90;;;;;;5025115;28;20219;-71
2021/10/08 01:58:41;;;;;;;4.77;4.37;;;12.30;99.90;;;;;;5027138;28;20220;-69
2021/10/08 02:01:07;;;;;;;7.20;4.90;;;12.40;99.90;;;;;;5025409;28;20279;-69
2021/10/08 02:03:33;;;;;;;5.03;4.63;;;12.40;99.90;;;;;;5024865;28;20438;-69
2021/10/08 02:05:59;;;;;;;6.03;4.73;;;12.40;99.90;;;;;;5024704;28;20493;-69
2021/10/08 02:08:25;;;;;;;5.80;5.13;;;12.20;99.90;;;;;;5027773;28;20435;-69
2021/10/08 02:10:50;;;;;;;5.53;5.00;;;12.20;99.90;;;;;;5022326;28;20435;-69
2021/10/08 02:13:18;;;;;;;5.00;4.60;;;12.30;99.90;;;;;;5024870;28;20200;-69
2021/10/08 02:15:47;;;;;;;7.70;5.20;;;12.30;99.90;;;;;;5021605;28;20277;-69
2021/10/08 02:18:12;;;;;;;4.97;4.30;;;12.10;99.90;;;;;;5024765;28;20822;-69
2021/10/08 02:20:39;;;;;;;5.70;5.20;;;12.10;99.90;;;;;;5026825;28;20427;-68
2021/10/08 02:23:05;;;;;;;5.53;4.87;;;12.00;99.90;;;;;;5024386;28;20680;-69
2021/10/08 02:25:31;;;;;;;6.30;4.30;;;12.10;99.90;;;;;;5025108;28;20422;-69
2021/10/08 02:27:57;;;;;;;5.30;4.50;;;12.10;99.90;;;;;;5025939;28;21020;-69
2021/10/08 02:30:22;;;;;;;6.70;4.80;;;12.10;99.90;;;;;;5023864;28;20197;-69
2021/10/08 02:32:48;;;;;;;4.77;4.23;;;12.10;99.90;;;;;;5024695;28;20198;-70
2021/10/08 02:35:14;;;;;;;5.67;5.10;;;12.10;99.90;;;;;;5023859;28;20188;-69
2021/10/08 02:37:40;;;;;;;4.80;4.40;;;12.10;99.90;;;;;;5022755;28;20185;-69
2021/10/08 02:40:07;;;;;;;5.10;4.60;;;12.10;99.90;;;;;;5026103;28;20185;-68
2021/10/08 02:42:34;;;;;;;6.23;5.20;;;12.10;99.90;;;;;;5025930;28;20431;-68
2021/10/08 02:44:59;;;;;;;8.87;5.10;;;12.10;99.90;;;;;;5026572;28;20440;-69
2021/10/08 02:47:25;;;;;;;6.00;4.70;;;11.90;99.90;;;;;;5007239;28;20473;-68
2021/10/08 02:49:51;;;;;;;5.63;4.93;;;11.80;99.90;;;;;;5025808;28;20236;-68
2021/10/08 02:52:16;;;;;;;6.33;5.60;;;11.80;99.90;;;;;;5028488;28;20212;-69
2021/10/08 02:54:42;;;;;;;6.10;5.23;;;11.90;99.90;;;;;;5024859;28;20193;-69
2021/10/08 02:57:07;;;;;;;7.20;5.70;;;11.90;99.90;;;;;;5022879;28;20664;-70
2021/10/08 02:59:33;;;;;;;7.80;5.10;;;11.90;99.90;;;;;;5021845;28;20687;-69
2021/10/08 03:01:59;;;;;;;6.53;5.60;;;11.90;99.90;;;;;;5025622;28;20246;-68
2021/10/08 03:04:24;;;;;;;7.93;5.53;;;11.80;99.90;;;;;;5021824;28;20406;-68
2021/10/08 03:06:50;;;;;;;7.83;5.80;;;11.70;99.90;;;;;;5023240;28;20799;-68
2021/10/08 03:09:16;;;;;;;7.27;6.20;;;11.70;99.90;;;;;;5023747;28;20243;-69
2021/10/08 03:11:41;;;;;;;6.33;5.20;;;11.80;99.90;;;;;;5025166;28;20196;-69
2021/10/08 03:14:07;;;;;;;5.77;5.27;;;11.60;99.90;;;;;;5019203;28;20197;-68
2021/10/08 03:16:33;;;;;;;6.00;5.40;;;11.50;99.90;;;;;;5020798;28;20188;-69
2021/10/08 03:18:58;;;;;;;5.20;4.70;;;11.40;99.90;;;;;;5024554;28;20205;-69
2021/10/08 03:21:24;;;;;;;5.20;4.67;;;11.50;99.90;;;;;;5026850;28;20667;-68
2021/10/08 03:23:50;;;;;;;5.70;4.83;;;11.60;99.90;;;;;;5023244;28;20200;-69
2021/10/08 03:26:16;;;;;;;5.63;4.93;;;11.60;99.90;;;;;;5023077;28;20224;-69
2021/10/08 03:28:41;;;;;;;5.80;4.70;;;11.60;99.90;;;;;;5023002;28;20472;-69
2021/10/08 03:31:07;;;;;;;5.07;4.57;;;11.70;99.90;;;;;;5023563;28;20543;-69
2021/10/08 03:33:32;;;;;;;5.37;4.87;;;11.70;99.90;;;;;;5027511;28;20177;-69
2021/10/08 03:35:58;;;;;;;4.47;3.80;;;11.60;99.90;;;;;;5021340;28;20307;-69
2021/10/08 03:38:24;;;;;;;6.80;5.53;;;11.60;99.90;;;;;;5022385;28;20656;-69
2021/10/08 03:43:27;;;;;;;4.73;4.33;;;11.60;99.90;;;;;;5022812;28;20442;-69
2021/10/08 03:45:54;;;;;;;5.63;4.30;;;11.60;99.90;;;;;;5024135;28;20427;-69
2021/10/08 03:50:58;;;;;;;6.87;4.50;;;11.50;99.90;;;;;;5021251;28;20806;-69
2021/10/08 03:53:24;;;;;;;7.57;4.70;;;11.40;99.90;;;;;;5025100;28;20488;-68
2021/10/08 03:55:49;;;;;;;5.23;4.27;;;11.40;99.90;;;;;;5024348;28;20443;-68
2021/10/08 03:58:15;;;;;;;5.63;4.10;;;11.30;99.90;;;;;;5022997;28;20571;-69
2021/10/08 04:00:40;;;;;;;6.90;6.10;;;11.40;99.90;;;;;;5024156;28;20672;-69
2021/10/08 04:03:06;;;;;;;5.10;4.47;;;11.40;99.90;;;;;;5019839;28;20181;-69
2021/10/08 04:05:32;;;;;;;6.00;5.10;;;11.40;99.90;;;;;;5022025;28;20196;-69
2021/10/08 04:07:57;;;;;;;4.67;4.27;;;11.40;99.90;;;;;;5024154;28;20642;-69
2021/10/08 04:10:23;;;;;;;5.03;4.53;;;11.40;99.90;;;;;;5021344;28;20219;-69
2021/10/08 04:12:49;;;;;;;5.70;4.40;;;11.50;99.90;;;;;;5020881;28;20192;-69
2021/10/08 04:15:14;;;;;;;4.43;4.03;;;11.50;99.90;;;;;;5023567;28;20177;-69
2021/10/08 04:17:40;;;;;;;6.80;4.17;;;11.50;99.90;;;;;;5023029;28;20195;-69
2021/10/08 04:20:06;;;;;;;5.27;4.77;;;11.50;99.90;;;;;;5023286;28;20275;-69
2021/10/08 04:22:32;;;;;;;5.37;4.87;;;11.60;99.90;;;;;;5025411;28;20226;-69
2021/10/08 04:24:57;;;;;;;4.97;4.47;;;11.60;99.90;;;;;;5018201;28;20431;-70
2021/10/08 04:27:23;;;;;;;4.40;4.00;;;11.60;99.90;;;;;;5022801;28;20208;-69
2021/10/08 04:29:49;;;;;;;4.80;4.30;;;11.60;99.90;;;;;;5022209;28;20288;-69
2021/10/08 04:32:14;;;;;;;6.77;5.00;;;11.60;99.90;;;;;;5020510;28;20819;-69
2021/10/08 04:34:40;;;;;;;5.20;4.50;;;11.60;99.90;;;;;;5022156;28;20192;-69
2021/10/08 04:37:06;;;;;;;5.37;4.87;;;11.50;99.90;;;;;;5006421;28;20231;-69
2021/10/08 04:39:31;;;;;;;7.60;4.47;;;11.50;99.90;;;;;;5021727;28;20208;-69
2021/10/08 04:41:57;;;;;;;5.07;4.40;;;11.60;99.90;;;;;;5022825;28;20180;-68
2021/10/08 04:44:23;;;;;;;4.50;4.10;;;11.70;99.90;;;;;;5021286;28;20309;-69
2021/10/08 04:46:48;;;;;;;5.80;4.50;;;11.50;99.90;;;;;;5021692;28;20238;-69
2021/10/08 04:49:14;;;;;;;6.57;4.10;;;11.50;99.90;;;;;;5022431;28;20196;-70
2021/10/08 04:51:40;;;;;;;5.57;5.00;;;11.50;99.90;;;;;;5022203;28;20185;-69
2021/10/08 04:54:05;;;;;;;6.50;4.40;;;11.50;99.90;;;;;;5021646;28;20184;-70
2021/10/08 04:56:35;;;;;;;6.77;5.00;;;11.50;99.90;;;;;;5022261;28;20188;-70
2021/10/08 04:59:00;;;;;;;4.23;3.80;;;11.40;99.90;;;;;;5007421;28;20594;-69
2021/10/08 05:01:29;;;;;;;4.70;4.30;;;11.40;99.90;;;;;;5023210;28;20430;-69
2021/10/08 05:03:56;;;;;;;6.57;5.43;;;11.40;99.90;;;;;;5020281;28;20196;-69
2021/10/08 05:06:21;;;;;;;4.97;4.47;;;11.30;99.90;;;;;;5021363;28;20549;-68
2021/10/08 05:08:47;;;;;;;5.27;4.63;;;11.40;99.90;;;;;;5021017;28;21096;-70
2021/10/08 05:11:13;;;;;;;4.90;4.47;;;11.30;99.90;;;;;;5022098;28;20544;-69
2021/10/08 05:13:39;;;;;;;5.23;4.73;;;11.40;99.90;;;;;;5029785;28;20454;-69
2021/10/08 05:16:04;;;;;;;5.63;5.03;;;11.40;99.90;;;;;;5025717;28;20193;-70
2021/10/08 05:18:30;;;;;;;7.00;5.60;;;11.30;99.90;;;;;;5020095;28;20207;-69
2021/10/08 05:20:56;;;;;;;7.03;5.03;;;11.30;99.90;;;;;;5021650;28;20599;-69
2021/10/08 05:23:22;;;;;;;7.23;5.30;;;11.30;99.90;;;;;;5019597;28;20184;-68
2021/10/08 05:25:48;;;;;;;6.40;5.43;;;11.30;99.90;;;;;;5023150;28;20271;-69
2021/10/08 05:28:13;;;;;;;7.67;5.43;;;11.20;99.90;;;;;;5020457;28;20574;-69
2021/10/08 05:30:39;;;;;;;6.60;4.93;;;11.30;99.90;;;;;;5021144;28;20200;-69
2021/10/08 05:33:05;;;;;;;5.87;4.57;;;11.30;99.90;;;;;;5023185;28;20583;-69
2021/10/08 05:35:30;;;;;;;6.67;6.07;;;11.30;99.90;;;;;;5018221;28;20655;-68
2021/10/08 05:37:56;;;;;;;7.87;5.00;;;11.30;99.90;;;;;;5024193;28;20216;-69
2021/10/08 05:40:22;;;;;;;6.27;5.00;;;11.30;99.90;;;;;;5025728;28;20271;-69
2021/10/08 05:42:48;;;;;;;9.00;6.40;;;11.30;99.90;;;;;;5024257;28;20193;-68
2021/10/08 05:45:14;;;;;;;7.40;5.30;;;11.20;99.90;;;;;;5025828;28;20662;-68
2021/10/08 05:47:39;;;;;;;6.80;5.67;;;11.00;99.90;;;;;;5026875;28;20203;-69
2021/10/08 05:50:05;;;;;;;5.33;4.83;;;11.10;99.90;;;;;;5024532;28;20885;-69
2021/10/08 05:52:31;;;;;;;7.53;5.73;;;11.00;99.90;;;;;;5008709;28;20275;-69
2021/10/08 05:54:57;;;;;;;6.80;5.60;;;10.90;99.90;;;;;;5023641;28;20873;-68
2021/10/08 05:57:23;;;;;;;8.00;5.93;;;10.90;99.90;;;;;;5025534;28;20193;-68
2021/10/08 05:59:48;;;;;;;6.67;5.97;;;10.80;99.90;;;;;;5027255;28;20208;-68
2021/10/08 06:02:14;;;;;;;6.60;6.00;;;10.90;99.90;;;;;;5023783;28;20876;-69
2021/10/08 06:04:40;;;;;;;8.33;5.80;;;11.00;99.90;;;;;;5024220;28;20192;-68
2021/10/08 06:07:07;;;;;;;8.70;6.30;;;11.10;99.90;;;;;;5024066;28;20211;-68
2021/10/08 06:09:34;;;;;;;10.47;6.40;;;11.10;99.90;;;;;;5024534;28;20305;-70
2021/10/08 06:12:00;;;;;;;9.80;6.43;;;11.20;99.90;;;;;;5024462;28;20435;-69
2021/10/08 06:14:26;;;;;;;11.00;6.90;;;11.30;99.90;;;;;;5028200;28;20479;-70
2021/10/08 06:16:52;;;;;;;8.53;6.33;;;11.30;99.90;;;;;;5023987;28;20564;-68
2021/10/08 06:19:18;;;;;;;10.57;6.70;;;11.40;99.90;;;;;;5025400;28;20213;-69
2021/10/08 06:21:43;;;;;;;6.80;6.10;;;11.40;99.90;;;;;;5029182;28;20227;-69
2021/10/08 06:24:09;;;;;;;7.00;6.33;;;11.40;99.90;;;;;;5025026;28;20284;-69
2021/10/08 06:26:35;;;;;;;9.10;6.37;;;11.40;99.90;;;;;;5026123;28;20343;-70
2021/10/08 06:29:00;;;;;;;8.53;7.67;;;11.50;99.90;;;;;;5028279;28;20205;-70
2021/10/08 06:31:26;;;;;;;7.30;6.60;;;11.40;99.90;;;;;;5025264;28;20200;-70
2021/10/08 06:33:52;;;;;;;6.80;6.00;;;11.50;99.90;;;;;;5023432;28;20201;-70
2021/10/08 06:36:17;;;;;;;8.77;6.60;;;11.50;99.90;;;;;;5025948;28;20203;-69
2021/10/08 06:38:43;;;;;;;8.30;6.30;;;11.40;99.90;;;;;;5022726;28;20215;-69
2021/10/08 06:41:09;;;;;;;10.10;6.40;;;11.40;99.90;;;;;;5027212;28;20201;-70
2021/10/08 06:43:35;;;;;;;8.60;6.37;;;11.40;99.90;;;;;;5023755;28;20243;-70
2021/10/08 06:46:00;;;;;;;8.43;6.60;;;11.30;99.90;;;;;;5022509;28;20185;-69
2021/10/08 06:48:26;;;;;;;6.50;5.80;;;11.50;99.90;;;;;;5024758;28;20870;-69
2021/10/08 06:50:51;;;;;;;7.80;6.40;;;11.50;99.90;;;;;;5022387;28;20597;-69
2021/10/08 06:53:17;;;;;;;15.20;6.80;;;11.50;99.90;;;;;;5028434;28;20574;-69
2021/10/08 06:55:43;;;;;;;6.60;5.90;;;11.60;99.90;;;;;;5025491;28;20193;-69
2021/10/08 06:58:09;;;;;;;8.67;6.37;;;11.60;99.90;;;;;;5021826;28;20232;-69
2021/10/08 07:00:34;;;;;;;11.33;6.70;;;11.60;99.90;;;;;;5024497;28;20510;-69
2021/10/08 07:03:00;;;;;;;7.93;6.70;;;11.70;99.90;;;;;;5005751;28;20197;-69
2021/10/08 07:05:26;;;;;;;7.83;6.73;;;11.70;99.90;;;;;;5005318;28;20212;-69
2021/10/08 07:07:53;;;;;;;9.37;6.30;;;11.70;99.90;;;;;;5022423;28;20498;-69
2021/10/08 07:10:19;;;;;;;9.00;6.60;;;11.70;99.90;;;;;;5023823;28;20477;-69
2021/10/08 07:12:45;;;;;;;7.53;6.27;;;11.70;99.90;;;;;;5023504;28;21013;-69
2021/10/08 07:15:18;;;;;;;9.43;6.20;;;11.70;99.90;;;;;;5025373;28;20779;-69
2021/10/08 07:17:48;;;;;;;11.50;7.53;;;11.80;99.90;;;;;;5023293;28;20306;-69
2021/10/08 07:20:16;;;;;;;12.70;6.70;;;11.80;99.90;;;;;;5023048;28;20431;-69
2021/10/08 07:22:42;;;;;;;8.17;6.70;;;11.90;99.90;;;;;;5023776;28;20428;-69
2021/10/08 07:25:08;;;;;;;8.07;6.90;;;11.80;99.90;;;;;;5007117;28;20793;-69
2021/10/08 07:27:35;;;;;;;18.40;7.90;;;11.70;99.90;;;;;;5022959;28;20197;-69
2021/10/08 07:30:01;;;;;;;10.40;6.80;;;11.70;99.90;;;;;;5020440;28;20452;-69
2021/10/08 07:32:28;;;;;;;12.27;6.97;;;11.80;99.90;;;;;;5020888;28;20970;-69
2021/10/08 07:34:54;;;;;;;7.90;6.43;;;11.80;99.90;;;;;;5023196;28;20197;-69
2021/10/08 07:37:20;;;;;;;10.07;6.77;;;11.80;99.90;;;;;;5026936;28;20466;-69
2021/10/08 07:39:46;;;;;;;12.27;8.40;;;11.80;99.90;;;;;;5024803;28;20513;-69
2021/10/08 07:42:11;;;;;;;15.67;7.77;;;11.90;99.90;;;;;;5025391;28;20485;-70
2021/10/08 07:44:37;;;;;;;8.73;7.07;;;12.00;99.90;;;;;;5022514;28;20205;-69
2021/10/08 07:47:03;;;;;;;10.13;6.80;;;12.10;99.90;;;;;;5023403;28;20271;-70
2021/10/08 07:49:28;;;;;;;10.37;7.50;;;12.10;99.90;;;;;;5021582;28;20263;-70
2021/10/08 07:51:54;;;;;;;7.57;6.67;;;12.30;99.90;;;;;;5019667;28;20196;-69
2021/10/08 07:54:20;;;;;;;8.90;6.40;;;12.30;99.90;;;;;;5021399;28;20192;-69
2021/10/08 07:56:46;;;;;;;6.87;6.10;;;12.20;99.90;;;;;;5019858;28;20479;-69
2021/10/08 07:59:11;;;;;;;7.90;6.93;;;12.30;99.90;;;;;;5018788;28;20208;-69
2021/10/08 08:01:37;;;;;;;9.33;6.17;;;12.30;99.90;;;;;;5024791;28;20184;-69
2021/10/08 08:04:03;;;;;;;7.13;6.43;;;12.40;99.90;;;;;;5021431;28;20730;-69
2021/10/08 08:06:28;;;;;;;10.07;6.77;;;12.40;99.90;;;;;;5024644;28;20184;-69
2021/10/08 08:08:54;;;;;;;7.63;6.63;;;12.50;99.90;;;;;;5006648;28;20760;-69
2021/10/08 08:11:20;;;;;;;9.50;6.00;;;12.60;99.90;;;;;;5021994;28;20512;-70
2021/10/08 08:13:45;;;;;;;11.37;7.37;;;12.60;99.90;;;;;;5023665;28;20237;-68
2021/10/08 08:16:11;;;;;;;7.23;6.23;;;12.70;99.90;;;;;;5023036;28;20322;-70
2021/10/08 08:18:37;;;;;;;9.13;6.03;;;12.80;99.90;;;;;;5023870;28;20636;-70
2021/10/08 08:21:03;;;;;;;7.93;7.00;;;12.80;99.90;;;;;;5022712;28;20271;-70
2021/10/08 08:23:29;;;;;;;8.20;6.13;;;12.80;99.90;;;;;;5023324;28;20188;-69
2021/10/08 08:25:55;;;;;;;7.57;5.17;;;12.70;99.90;;;;;;5020407;28;20431;-69
2021/10/08 08:28:24;;;;;;;7.73;6.80;;;12.90;99.90;;;;;;5023492;28;20212;-69
2021/10/08 08:30:50;;;;;;;8.07;6.63;;;12.90;99.90;;;;;;5024185;28;21061;-70
2021/10/08 08:33:15;;;;;;;8.03;5.70;;;13.00;99.90;;;;;;5021251;28;20511;-68
2021/10/08 08:35:41;;;;;;;6.90;5.60;;;13.00;99.90;;;;;;5022418;28;20204;-68
2021/10/08 08:38:07;;;;;;;11.43;7.00;;;13.00;99.90;;;;;;5022425;28;20220;-69
2021/10/08 08:40:33;;;;;;;10.73;6.20;;;13.00;99.90;;;;;;5023671;28;20204;-68
2021/10/08 08:43:00;;;;;;;8.83;6.00;;;13.00;99.90;;;;;;5021804;28;20199;-70
2021/10/08 08:45:27;;;;;;;8.93;5.73;;;13.10;99.90;;;;;;5022407;28;20448;-69
2021/10/08 08:47:59;;;;;;;7.27;6.27;;;13.20;99.90;;;;;;5024313;28;20465;-69
2021/10/08 08:50:26;;;;;;;8.70;6.43;;;13.20;99.90;;;;;;5021089;28;20838;-69
2021/10/08 08:52:52;;;;;;;7.50;6.70;;;13.40;99.90;;;;;;5020787;28;20447;-68
2021/10/08 08:55:18;;;;;;;7.80;5.90;;;13.40;99.90;;;;;;5025051;28;20462;-68
2021/10/08 08:57:43;;;;;;;8.70;5.87;;;13.50;99.90;;;;;;5003233;28;20470;-69
2021/10/08 09:00:18;;;;;;;9.73;6.40;;;13.60;99.90;;;;;;5024398;28;20651;-69
2021/10/08 09:02:51;;;;;;;6.50;5.80;;;13.50;99.90;;;;;;5024886;28;20250;-68
2021/10/08 09:05:19;;;;;;;8.10;6.20;;;13.60;99.90;;;;;;5019690;28;20415;-70
2021/10/08 09:07:45;;;;;;;8.33;6.37;;;13.70;99.90;;;;;;5019752;28;20530;-69
2021/10/08 09:10:19;;;;;;;8.67;5.83;;;13.70;99.90;;;;;;5024086;28;20537;-69
2021/10/08 09:12:47;;;;;;;7.97;5.90;;;13.80;99.90;;;;;;5030190;28;20274;-69
2021/10/08 09:15:14;;;;;;;6.87;5.70;;;13.80;99.90;;;;;;5028952;28;20522;-70
2021/10/08 09:17:40;;;;;;;15.77;6.60;;;13.90;99.90;;;;;;5024977;28;21076;-69
2021/10/08 09:20:18;;;;;;;10.33;6.50;;;14.00;99.90;;;;;;5027486;28;20534;-70
2021/10/08 09:22:46;;;;;;;7.00;6.30;;;14.10;99.90;;;;;;5025029;28;20441;-69
2021/10/08 09:25:26;;;;;;;6.83;5.63;;;14.10;99.90;;;;;;5025826;28;20992;-69
2021/10/08 09:28:04;;;;;;;8.03;5.27;;;14.20;99.90;;;;;;5025602;28;20435;-69
2021/10/08 09:30:46;;;;;;;8.83;5.17;;;14.30;99.90;;;;;;5021493;28;21196;-69
2021/10/08 09:33:14;;;;;;;7.70;5.60;;;14.30;99.90;;;;;;5025097;28;20431;-69
2021/10/08 09:35:41;;;;;;;6.93;5.63;;;14.40;99.90;;;;;;5026041;28;20431;-68
2021/10/08 09:38:11;;;;;;;6.80;5.90;;;14.50;99.90;;;;;;5008244;28;20569;-69
2021/10/08 09:40:43;;;;;;;6.20;5.60;;;14.60;99.90;;;;;;5026722;28;20447;-68
2021/10/08 09:43:25;;;;;;;6.47;5.87;;;14.60;99.90;;;;;;5027445;28;21195;-68
2021/10/08 09:46:05;;;;;;;8.03;6.17;;;14.70;99.90;;;;;;5026516;28;20465;-69
2021/10/08 09:48:42;;;;;;;9.70;5.37;;;15.00;99.90;;;;;;5026559;28;20547;-69
2021/10/08 09:51:12;;;;;;;8.00;5.40;;;15.10;99.90;;;;;;5027607;28;20813;-68
2021/10/08 09:53:50;;;;;;;6.27;5.27;;;15.20;99.90;;;;;;5023507;28;20508;-69
2021/10/08 09:56:37;;;;;;;6.57;5.43;;;15.30;99.90;;;;;;5025036;28;20865;-68
2021/10/08 09:59:04;;;;;;;6.27;5.27;;;15.50;99.90;;;;;;5024461;28;20440;-68
2021/10/08 10:01:33;;;;;;;7.90;5.60;;;15.60;99.90;;;;;;5026507;28;20448;-67
2021/10/08 10:04:00;;;;;;;5.30;4.80;;;15.60;99.90;;;;;;5025972;28;20438;-69
2021/10/08 10:06:26;;;;;;;6.80;5.97;;;15.60;99.90;;;;;;5023319;28;20435;-69
2021/10/08 10:08:52;;;;;;;8.60;7.70;;;15.70;99.90;;;;;;5024264;28;20996;-69
2021/10/08 10:11:20;;;;;;;5.03;4.50;;;15.80;99.90;;;;;;5025979;28;20846;-69
2021/10/08 10:13:52;;;;;;;5.27;4.77;;;15.80;99.90;;;;;;5024151;28;20540;-68
2021/10/08 10:16:19;;;;;;;5.57;5.07;;;16.00;99.90;;;;;;5024897;28;20447;-69
2021/10/08 10:18:51;;;;;;;8.23;5.27;;;16.00;99.90;;;;;;5024600;28;20458;-70
2021/10/08 10:21:28;;;;;;;7.03;4.90;;;16.10;99.90;;;;;;5023826;28;20432;-69
2021/10/08 10:23:55;;;;;;;6.67;6.00;;;16.20;99.90;;;;;;5025339;28;20439;-69
2021/10/08 10:26:24;;;;;;;5.80;5.20;;;16.20;99.90;;;;;;5029257;28;20934;-69
2021/10/08 10:28:50;;;;;;;6.50;5.33;;;16.30;99.90;;;;;;5022081;28;20454;-69
2021/10/08 10:31:16;;;;;;;6.90;5.03;;;16.40;99.90;;;;;;5005646;28;20447;-69
2021/10/08 10:33:42;;;;;;;5.93;5.27;;;16.40;99.90;;;;;;5026738;28;20854;-69
2021/10/08 10:36:32;;;;;;;7.40;5.40;;;16.50;99.90;;;;;;5025808;28;20466;-69
2021/10/08 10:39:17;;;;;;;9.30;4.90;;;16.50;99.90;;;;;;5024424;28;20466;-69
2021/10/08 10:41:48;;;;;;;12.33;5.60;;;16.50;99.90;;;;;;5022811;28;20437;-69
2021/10/08 10:44:41;;;;;;;5.47;4.97;;;16.50;99.90;;;;;;5022712;28;20947;-70
2021/10/08 10:47:32;;;;;;;8.73;5.10;;;16.50;99.90;;;;;;5022165;28;20501;-69
2021/10/08 10:50:39;;;;;;;6.37;5.70;;;16.40;99.90;;;;;;5021751;28;20462;-69
2021/10/08 10:53:05;;;;;;;6.17;5.30;;;16.40;99.90;;;;;;5029255;28;20506;-69
2021/10/08 10:55:34;;;;;;;6.97;5.77;;;16.40;99.90;;;;;;5020564;28;20447;-69
2021/10/08 10:58:08;;;;;;;7.43;5.13;;;16.40;99.90;;;;;;5024293;28;20484;-69
2021/10/08 11:00:50;;;;;;;7.53;5.00;;;16.40;99.90;;;;;;5023177;28;20427;-69
2021/10/08 11:03:29;;;;;;;7.33;5.50;;;16.40;99.90;;;;;;5022890;28;20465;-69
2021/10/08 11:06:06;;;;;;;8.07;6.20;;;16.50;99.90;;;;;;5024933;28;20431;-69
2021/10/08 11:08:32;;;;;;;6.90;5.30;;;16.50;99.90;;;;;;5027669;28;20891;-69
2021/10/08 11:11:01;;;;;;;6.77;5.60;;;16.60;99.90;;;;;;5019973;28;20960;-69
2021/10/08 11:13:37;;;;;;;7.13;5.10;;;16.70;99.90;;;;;;5023385;28;20209;-69
2021/10/08 11:16:08;;;;;;;9.47;6.17;;;16.70;99.90;;;;;;5023330;28;20939;-68
2021/10/08 11:18:54;;;;;;;7.13;5.43;;;16.70;99.90;;;;;;5021409;28;20825;-69
2021/10/08 11:21:30;;;;;;;8.70;5.57;;;16.70;99.90;;;;;;5023845;28;20477;-69
2021/10/08 11:24:19;;;;;;;6.73;5.97;;;16.90;99.90;;;;;;5026193;28;20417;-68
2021/10/08 11:27:00;;;;;;;8.33;5.93;;;16.90;99.90;;;;;;5022312;28;20970;-68
2021/10/08 11:29:30;;;;;;;6.40;5.80;;;16.90;99.90;;;;;;5024119;28;20466;-69
2021/10/08 11:32:00;;;;;;;7.00;6.00;;;16.90;99.90;;;;;;5026583;28;20428;-68
2021/10/08 11:34:26;;;;;;;9.40;7.50;;;16.80;99.90;;;;;;5024535;28;20553;-68
2021/10/08 11:36:56;;;;;;;8.20;6.33;;;16.80;99.90;;;;;;5023366;28;20529;-68
2021/10/08 11:39:22;;;;;;;13.00;6.67;;;16.90;99.90;;;;;;5023315;28;20208;-69
2021/10/08 11:42:15;;;;;;;7.17;6.47;;;17.00;99.90;;;;;;5024094;28;20804;-68
2021/10/08 11:45:11;;;;;;;6.80;6.10;;;17.10;99.90;;;;;;5022831;28;20204;-68
2021/10/08 11:47:55;;;;;;;11.33;6.20;;;16.90;99.90;;;;;;5022921;28;20581;-68
2021/10/08 11:52:56;;;;;;;8.07;7.00;;;17.00;99.90;;;;;;5021643;28;20459;-68
2021/10/08 11:55:27;;;;;;;10.93;7.90;;;17.00;99.90;;;;;;5025852;28;20754;-69
2021/10/08 11:57:57;;;;;;;9.60;6.53;;;17.00;99.90;;;;;;5020045;28;20510;-69
2021/10/08 12:00:26;;;;;;;9.30;7.60;;;16.90;99.90;;;;;;5019586;28;20494;-69
2021/10/08 12:03:12;;;;;;;17.03;9.43;;;17.10;99.90;;;;;;5023746;28;20431;-68
2021/10/08 12:05:40;;;;;;;9.37;6.73;;;17.00;99.90;;;;;;5024149;28;20481;-68
2021/10/08 12:08:05;;;;;;;8.73;7.13;;;17.10;99.90;;;;;;5020823;28;20873;-68
2021/10/08 12:10:31;;;;;;;8.90;7.60;;;17.10;99.90;;;;;;5025555;28;20435;-69
2021/10/08 12:12:58;;;;;;;14.03;7.90;;;17.10;99.90;;;;;;5021395;28;20204;-69
2021/10/08 12:15:34;;;;;;;10.27;7.13;;;17.10;99.90;;;;;;5021692;28;20208;-69
2021/10/08 12:18:02;;;;;;;12.70;7.20;;;17.30;99.90;;;;;;5025805;28;20584;-69
2021/10/08 12:20:33;;;;;;;7.80;7.00;;;17.50;99.90;;;;;;5022710;28;20846;-69
2021/10/08 12:23:22;;;;;;;9.33;7.40;;;17.50;99.90;;;;;;5022821;28;20815;-68
2021/10/08 12:25:51;;;;;;;9.70;6.57;;;17.60;99.90;;;;;;5022719;28;21091;-69
2021/10/08 12:28:20;;;;;;;8.00;7.20;;;17.70;99.90;;;;;;5020642;28;20436;-69
2021/10/08 12:31:01;;;;;;;12.90;7.90;;;17.60;99.90;;;;;;5023200;28;20443;-69
2021/10/08 12:33:27;;;;;;;8.90;7.53;;;17.70;99.90;;;;;;5024246;28;20434;-69
2021/10/08 12:36:14;;;;;;;9.63;8.10;;;17.70;99.90;;;;;;5020397;28;20423;-69
2021/10/08 12:39:04;;;;;;;11.43;7.07;;;17.70;99.90;;;;;;5021090;28;20209;-69
2021/10/08 12:41:40;;;;;;;12.20;7.40;;;17.80;99.90;;;;;;5014693;28;20484;-69
2021/10/08 12:44:19;;;;;;;9.47;7.67;;;17.80;99.90;;;;;;5003937;28;20404;-69
2021/10/08 12:47:12;;;;;;;10.20;8.27;;;17.70;99.90;;;;;;5021332;28;20443;-69
2021/10/08 12:49:56;;;;;;;11.00;8.97;;;17.60;99.90;;;;;;5018082;28;20463;-69
2021/10/08 12:52:49;;;;;;;14.00;8.40;;;17.70;99.90;;;;;;5024004;28;20427;-69
2021/10/08 12:55:17;;;;;;;14.20;8.20;;;17.80;99.90;;;;;;5019487;28;21024;-69
2021/10/08 12:58:06;;;;;;;7.90;7.10;;;17.90;99.90;;;;;;5002382;28;20471;-68
2021/10/08 13:00:37;;;;;;;9.60;7.30;;;17.90;99.90;;;;;;5024239;28;20434;-68